createdAt,value
2018-06-21T00:00:50.784Z,5.17
2018-06-21T00:04:44.809Z,5.20
2018-06-21T00:08:38.833Z,4.70
2018-06-21T00:12:33.869Z,4.50
2018-06-21T00:16:27.803Z,4.67
2018-06-21T00:20:21.755Z,4.77
2018-06-21T00:24:16.819Z,4.90
2018-06-21T00:28:11.371Z,5.07
2018-06-21T00:32:05.408Z,5.17
2018-06-21T00:35:58.874Z,5.40
2018-06-21T00:39:51.719Z,4.87
2018-06-21T00:43:45.408Z,5.03
2018-06-21T00:47:40.231Z,5.40
2018-06-21T00:51:34.222Z,4.75
2018-06-21T00:55:39.671Z,5.87
2018-06-21T00:59:33.619Z,5.60
2018-06-21T01:03:27.602Z,5.65
2018-06-21T01:07:21.630Z,5.00
2018-06-21T01:11:15.593Z,5.40
2018-06-21T01:15:09.682Z,5.40
2018-06-21T01:19:04.402Z,5.67
2018-06-21T01:22:58.423Z,4.95
2018-06-21T01:26:52.473Z,5.03
2018-06-21T01:30:46.482Z,5.85
2018-06-21T01:34:40.668Z,5.97
2018-06-21T01:38:34.651Z,5.90
2018-06-21T01:42:28.181Z,6.33
2018-06-21T01:46:22.127Z,6.77
2018-06-21T01:50:16.079Z,7.00
2018-06-21T01:54:10.118Z,6.85
2018-06-21T01:58:04.040Z,7.45
2018-06-21T02:01:58.013Z,7.30
2018-06-21T02:05:52.089Z,7.57
2018-06-21T02:09:46.046Z,7.07
2018-06-21T02:13:40.013Z,7.20
2018-06-21T02:17:34.014Z,7.40
2018-06-21T02:21:28.148Z,60.13
2018-06-21T02:25:21.802Z,6.60
2018-06-21T02:29:15.736Z,6.70
2018-06-21T02:33:09.849Z,6.10
2018-06-21T02:37:03.845Z,6.40
2018-06-21T02:40:57.889Z,6.80
2018-06-21T02:44:51.364Z,6.60
2018-06-21T02:48:45.320Z,6.33
2018-06-21T02:52:39.253Z,5.85
2018-06-21T02:56:33.243Z,6.50
2018-06-21T03:00:27.229Z,6.87
2018-06-21T03:04:21.237Z,6.57
2018-06-21T03:08:15.239Z,6.45
2018-06-21T03:12:14.549Z,6.90
2018-06-21T03:16:08.470Z,6.67
2018-06-21T03:20:02.444Z,6.83
2018-06-21T03:23:56.664Z,6.73
2018-06-21T03:27:50.656Z,7.13
2018-06-21T03:31:44.753Z,6.60
2018-06-21T03:35:38.727Z,7.17
2018-06-21T03:39:32.669Z,7.60
2018-06-21T03:43:26.294Z,8.00
2018-06-21T03:47:20.379Z,8.50
2018-06-21T03:51:14.331Z,8.45
2018-06-21T03:59:30.966Z,8.35
2018-06-21T04:03:25.029Z,8.80
2018-06-21T04:07:19.068Z,8.83
2018-06-21T04:11:13.058Z,7.90
2018-06-21T04:15:07.042Z,8.40
2018-06-21T04:19:01.314Z,8.23
2018-06-21T04:22:55.450Z,8.00
2018-06-21T04:26:49.378Z,7.90
2018-06-21T04:30:43.674Z,8.30
2018-06-21T04:34:38.915Z,8.00
2018-06-21T04:38:33.000Z,7.60
2018-06-21T04:42:26.770Z,7.42
2018-06-21T04:46:20.680Z,6.77
2018-06-21T04:50:14.718Z,7.27
2018-06-21T04:54:08.682Z,7.40
2018-06-21T04:58:02.716Z,8.10
2018-06-21T05:01:56.858Z,8.13
2018-06-21T05:05:50.912Z,8.85
2018-06-21T05:09:45.155Z,11.78
2018-06-21T05:13:39.175Z,12.30
2018-06-21T05:17:33.124Z,12.00
2018-06-21T05:21:27.178Z,12.43
2018-06-21T05:25:21.607Z,13.53
2018-06-21T05:29:15.632Z,13.80
2018-06-21T05:33:10.479Z,15.80
2018-06-21T05:37:04.416Z,16.75
2018-06-21T05:40:58.479Z,15.65
2018-06-21T05:44:51.939Z,15.95
2018-06-21T05:48:46.121Z,14.87
2018-06-21T05:52:40.172Z,17.10
2018-06-21T05:56:33.918Z,16.53
2018-06-21T06:00:27.914Z,16.70
2018-06-21T06:04:21.919Z,15.98
2018-06-21T06:08:15.951Z,16.50
2018-06-21T06:12:09.847Z,14.20
2018-06-21T06:16:03.974Z,14.45
2018-06-21T06:19:58.031Z,14.43
2018-06-21T06:23:52.060Z,14.05
2018-06-21T06:27:45.999Z,14.15
2018-06-21T06:31:40.468Z,13.90
2018-06-21T06:35:35.390Z,12.55
2018-06-21T06:39:29.427Z,13.15
2018-06-21T06:43:23.215Z,12.90
2018-06-21T06:47:17.117Z,12.57
2018-06-21T06:51:11.123Z,11.33
2018-06-21T06:55:05.127Z,11.00
2018-06-21T06:58:59.473Z,11.03
2018-06-21T07:02:53.394Z,11.35
2018-06-21T07:06:47.659Z,11.53
2018-06-21T07:10:41.688Z,12.60
2018-06-21T07:14:35.709Z,12.00
2018-06-21T07:18:29.608Z,12.60
2018-06-21T07:22:23.656Z,13.70
2018-06-21T07:26:17.655Z,11.53
2018-06-21T07:30:11.651Z,9.27
2018-06-21T07:34:05.871Z,7.40
2018-06-21T07:38:00.727Z,7.30
2018-06-21T07:41:54.716Z,14.13
2018-06-21T07:45:48.173Z,6.65
2018-06-21T07:49:42.225Z,5.43
2018-06-21T07:53:36.327Z,4.50
2018-06-21T07:57:30.451Z,3.42
2018-06-21T08:01:24.446Z,3.08
2018-06-21T08:05:19.833Z,4.03
2018-06-21T08:09:29.483Z,3.72
2018-06-21T08:13:25.010Z,3.23
2018-06-21T08:17:20.941Z,2.50
2018-06-21T08:21:24.154Z,2.12
2018-06-21T08:25:21.102Z,2.07
2018-06-21T08:29:17.187Z,2.10
2018-06-21T08:33:11.772Z,2.23
2018-06-21T08:37:06.477Z,2.30
2018-06-21T08:41:01.903Z,1.80
2018-06-21T08:44:55.785Z,1.80
2018-06-21T08:48:50.324Z,2.10
2018-06-21T08:52:44.955Z,2.15
2018-06-21T08:56:39.696Z,2.35
2018-06-21T09:00:35.081Z,2.00
2018-06-21T09:04:34.383Z,2.30
2018-06-21T09:08:29.215Z,2.20
2018-06-21T09:12:27.312Z,1.77
2018-06-21T09:16:21.829Z,3.45
2018-06-21T09:20:16.226Z,2.53
2018-06-21T09:24:10.742Z,2.02
2018-06-21T09:28:05.223Z,2.00
2018-06-21T09:31:59.935Z,2.20
2018-06-21T09:35:54.532Z,2.57
2018-06-21T09:40:53.774Z,1.97
2018-06-21T09:44:52.807Z,1.70
2018-06-21T09:48:51.955Z,1.82
2018-06-21T09:52:47.014Z,1.50
2018-06-21T09:56:41.627Z,2.00
2018-06-21T10:00:41.294Z,2.03
2018-06-21T10:04:35.868Z,1.67
2018-06-21T10:08:30.124Z,1.82
2018-06-21T10:12:25.097Z,1.98
2018-06-21T10:20:33.959Z,2.22
2018-06-21T10:24:28.529Z,2.27
2018-06-21T10:28:25.046Z,1.90
2018-06-21T10:32:19.457Z,1.90
2018-06-21T10:36:14.011Z,2.20
2018-06-21T10:40:17.485Z,2.00
2018-06-21T10:44:11.984Z,2.10
2018-06-21T10:48:06.472Z,1.82
2018-06-21T10:52:02.383Z,2.10
2018-06-21T10:55:57.834Z,1.50
2018-06-21T10:59:52.542Z,1.73
2018-06-21T11:03:48.227Z,1.87
2018-06-21T11:11:56.403Z,1.77
2018-06-21T11:15:51.421Z,1.67
2018-06-21T11:19:49.747Z,2.00
2018-06-21T11:23:44.921Z,1.70
2018-06-21T11:27:39.616Z,1.60
2018-06-21T11:31:34.136Z,1.47
2018-06-21T11:35:30.460Z,1.70
2018-06-21T11:39:25.501Z,1.45
2018-06-21T11:43:23.541Z,1.70
2018-06-21T11:47:18.291Z,1.30
2018-06-21T11:51:13.276Z,1.30
2018-06-21T11:55:08.582Z,1.65
2018-06-21T11:59:08.395Z,1.60
2018-06-21T12:03:04.154Z,1.53
2018-06-21T12:06:58.972Z,3.63
2018-06-21T12:10:53.502Z,1.90
2018-06-21T12:14:48.955Z,1.72
2018-06-21T12:18:43.476Z,1.80
2018-06-21T12:22:37.858Z,1.32
2018-06-21T12:26:32.807Z,1.77
2018-06-21T12:30:26.991Z,1.42
2018-06-21T12:34:21.287Z,1.77
2018-06-21T12:38:15.487Z,1.75
2018-06-21T12:42:09.820Z,1.93
2018-06-21T12:46:03.543Z,1.65
2018-06-21T12:49:57.820Z,1.80
2018-06-21T12:53:52.375Z,1.95
2018-06-21T12:57:46.782Z,1.70
2018-06-21T13:01:40.852Z,1.40
2018-06-21T13:05:35.006Z,1.60
2018-06-21T13:10:37.900Z,1.50
2018-06-21T13:14:33.299Z,1.90
2018-06-21T13:18:29.376Z,1.50
2018-06-21T13:22:24.046Z,1.40
2018-06-21T13:26:21.733Z,1.60
2018-06-21T13:30:16.044Z,1.55
2018-06-21T13:34:10.198Z,1.40
2018-06-21T13:38:04.430Z,1.70
2018-06-21T13:41:59.481Z,2.00
2018-06-21T13:45:53.140Z,1.52
2018-06-21T13:49:47.400Z,1.90
2018-06-21T13:53:42.257Z,1.50
2018-06-21T13:57:42.306Z,1.40
2018-06-21T14:01:36.918Z,1.47
2018-06-21T14:05:31.026Z,1.97
2018-06-21T14:09:26.181Z,1.70
2018-06-21T14:13:20.196Z,1.57
2018-06-21T14:17:14.607Z,1.50
2018-06-21T14:21:09.168Z,1.60
2018-06-21T14:25:04.339Z,1.30
2018-06-21T14:28:58.658Z,1.37
2018-06-21T14:44:42.796Z,1.40
2018-06-21T14:48:36.852Z,1.02
2018-06-21T14:52:31.138Z,1.40
2018-06-21T14:56:25.945Z,1.30
2018-06-21T15:00:20.700Z,1.20
2018-06-21T15:04:15.048Z,1.50
2018-06-21T15:08:09.898Z,1.40
2018-06-21T15:12:04.083Z,1.00
2018-06-21T15:15:58.506Z,1.30
2018-06-21T15:19:52.896Z,1.80
2018-06-21T15:23:49.799Z,0.97
2018-06-21T15:27:48.281Z,1.13
2018-06-21T15:31:44.064Z,1.20
2018-06-21T15:35:38.681Z,0.87
2018-06-21T15:39:33.081Z,0.70
2018-06-21T15:43:26.825Z,0.83
2018-06-21T15:47:27.609Z,1.47
2018-06-21T15:51:21.897Z,1.07
2018-06-21T15:55:16.136Z,1.10
2018-06-21T15:59:10.632Z,0.70
2018-06-21T16:03:05.295Z,1.17
2018-06-21T16:06:59.716Z,1.10
2018-06-21T16:10:54.120Z,1.37
2018-06-21T16:14:48.202Z,1.00
2018-06-21T16:18:42.829Z,1.07
2018-06-21T16:22:37.442Z,0.97
2018-06-21T16:26:33.394Z,1.17
2018-06-21T16:30:28.067Z,1.00
2018-06-21T16:34:22.876Z,0.90
2018-06-21T16:38:17.002Z,1.33
2018-06-21T16:42:14.471Z,0.93
2018-06-21T16:50:48.193Z,1.12
2018-06-21T17:03:50.943Z,0.90
2018-06-21T17:07:51.342Z,2.20
2018-06-21T17:11:45.673Z,1.00
2018-06-21T17:15:39.529Z,0.97
2018-06-21T17:19:34.380Z,0.90
2018-06-21T17:23:29.123Z,1.00
2018-06-21T17:27:23.679Z,2.30
2018-06-21T17:31:18.280Z,2.10
2018-06-21T17:35:12.879Z,1.00
2018-06-21T17:39:09.058Z,1.30
2018-06-21T17:43:02.715Z,0.80
2018-06-21T17:46:57.242Z,1.00
2018-06-21T17:50:51.911Z,1.20
2018-06-21T17:54:47.184Z,0.77
2018-06-21T17:58:42.301Z,1.60
2018-06-21T18:02:38.405Z,1.90
2018-06-21T18:06:32.538Z,1.00
2018-06-21T18:10:27.233Z,1.23
2018-06-21T18:14:25.364Z,1.20
2018-06-21T18:18:19.499Z,1.13
2018-06-21T18:22:13.920Z,1.10
2018-06-21T18:26:09.319Z,1.37
2018-06-21T18:30:03.728Z,1.00
2018-06-21T18:33:58.055Z,1.57
2018-06-21T18:37:52.615Z,1.30
2018-06-21T18:41:48.943Z,1.23
2018-06-21T18:45:42.936Z,1.27
2018-06-21T18:49:37.530Z,1.20
2018-06-21T18:53:32.693Z,1.43
2018-06-21T18:57:26.831Z,1.70
2018-06-21T19:01:20.967Z,2.00
2018-06-21T19:05:14.728Z,6.33
2018-06-21T19:09:14.163Z,1.37
2018-06-21T19:13:07.942Z,1.53
2018-06-21T19:17:01.950Z,1.00
2018-06-21T19:20:56.140Z,1.85
2018-06-21T19:24:50.452Z,1.80
2018-06-21T19:28:45.575Z,1.33
2018-06-21T19:32:41.117Z,1.40
2018-06-21T19:36:35.774Z,2.17
2018-06-21T19:40:29.835Z,1.87
2018-06-21T19:44:23.617Z,1.23
2018-06-21T19:48:19.558Z,1.23
2018-06-21T19:52:13.527Z,1.30
2018-06-21T19:56:08.581Z,1.23
2018-06-21T20:00:02.883Z,1.23
2018-06-21T20:03:57.355Z,1.53
2018-06-21T20:07:52.563Z,1.33
2018-06-21T20:11:48.042Z,1.10
2018-06-21T20:15:48.849Z,1.37
2018-06-21T20:19:48.265Z,1.60
2018-06-21T20:23:43.900Z,1.07
2018-06-21T20:27:38.042Z,1.33
2018-06-21T20:31:32.192Z,1.30
2018-06-21T20:35:26.294Z,1.53
2018-06-21T20:39:20.445Z,1.20
2018-06-21T20:43:14.060Z,1.40
2018-06-21T20:47:08.107Z,1.40
2018-06-21T20:51:02.110Z,1.27
2018-06-21T20:54:57.221Z,1.57
2018-06-21T20:58:51.358Z,1.00
2018-06-21T21:02:45.467Z,1.50
2018-06-21T21:06:39.782Z,2.10
2018-06-21T21:10:33.842Z,1.43
2018-06-21T21:14:28.019Z,1.63
2018-06-21T21:18:22.330Z,1.73
2018-06-21T21:22:16.427Z,1.73
2018-06-21T21:26:11.891Z,2.10
2018-06-21T21:30:07.408Z,2.10
2018-06-21T21:34:02.434Z,1.53
2018-06-21T21:37:56.460Z,2.07
2018-06-21T21:41:50.732Z,1.73
2018-06-21T21:45:44.339Z,2.27
2018-06-21T21:49:38.394Z,2.10
2018-06-21T21:53:32.456Z,1.92
2018-06-21T21:57:25.941Z,2.07
2018-06-21T22:01:20.056Z,1.73
2018-06-21T22:05:14.166Z,1.40
2018-06-21T22:09:09.244Z,1.80
2018-06-21T22:13:03.515Z,1.97
2018-06-21T22:16:57.885Z,1.80
2018-06-21T22:20:51.955Z,1.73
2018-06-21T22:24:46.005Z,2.30
2018-06-21T22:28:40.115Z,2.00
2018-06-21T22:32:34.451Z,2.13
2018-06-21T22:36:28.441Z,2.00
2018-06-21T22:40:23.509Z,2.07
2018-06-21T22:44:17.602Z,1.93
2018-06-21T22:48:11.599Z,1.98
2018-06-21T22:52:05.689Z,2.20
2018-06-21T22:56:00.159Z,2.00
2018-06-21T22:59:54.214Z,2.00
2018-06-21T23:03:55.055Z,2.42
2018-06-21T23:07:49.075Z,1.97
2018-06-21T23:11:43.034Z,2.10
2018-06-21T23:15:37.130Z,1.67
2018-06-21T23:19:33.751Z,1.73
2018-06-21T23:23:27.844Z,2.97
2018-06-21T23:27:21.805Z,2.40
2018-06-21T23:31:15.904Z,2.50
2018-06-21T23:35:10.265Z,1.67
2018-06-21T23:39:08.148Z,1.93
2018-06-21T23:43:02.396Z,2.07
2018-06-21T23:46:56.377Z,1.83
2018-06-21T23:50:50.373Z,1.53
2018-06-21T23:54:45.141Z,1.83
2018-06-21T23:58:39.200Z,2.13
